createdAt,value
2023-05-02T00:02:23.081Z,27.00
2023-05-02T00:04:50.614Z,21.00
2023-05-02T00:07:18.034Z,24.75
2023-05-02T00:09:45.462Z,28.25
2023-05-02T00:12:13.319Z,22.75
2023-05-02T00:14:40.773Z,18.25
2023-05-02T00:17:08.238Z,24.75
2023-05-02T00:19:40.292Z,21.50
2023-05-02T00:22:07.692Z,6.00
2023-05-02T00:24:36.715Z,30.00
2023-05-02T00:27:04.914Z,23.00
2023-05-02T00:29:32.450Z,22.50
2023-05-02T00:31:59.837Z,24.25
2023-05-02T00:34:31.700Z,25.00
2023-05-02T00:36:59.650Z,28.75
2023-05-02T00:39:27.095Z,30.50
2023-05-02T00:42:01.608Z,20.25
2023-05-02T00:44:29.434Z,25.00
2023-05-02T00:46:57.340Z,23.75
2023-05-02T00:49:25.217Z,25.00
2023-05-02T00:51:54.505Z,23.75
2023-05-02T00:54:22.090Z,28.75
2023-05-02T00:56:49.584Z,31.50
2023-05-02T00:59:18.063Z,22.25
2023-05-02T01:01:54.417Z,28.50
2023-05-02T01:04:44.079Z,22.50
2023-05-02T01:07:49.499Z,25.75
2023-05-02T01:10:38.450Z,26.25
2023-05-02T01:13:14.781Z,27.50
2023-05-02T01:15:45.472Z,35.00
2023-05-02T01:18:15.573Z,29.75
2023-05-02T01:20:46.660Z,27.75
2023-05-02T01:23:47.408Z,28.50
2023-05-02T01:26:17.680Z,25.75
2023-05-02T01:28:54.102Z,32.50
2023-05-02T01:31:23.873Z,30.50
2023-05-02T01:33:53.950Z,34.25
2023-05-02T01:36:25.620Z,37.25
2023-05-02T01:38:56.002Z,29.25
2023-05-02T01:41:27.632Z,30.75
2023-05-02T01:44:00.091Z,32.75
2023-05-02T01:46:31.669Z,34.00
2023-05-02T01:49:03.515Z,29.25
2023-05-02T01:51:34.873Z,30.50
2023-05-02T01:54:07.865Z,40.25
2023-05-02T01:56:38.626Z,28.75
2023-05-02T01:59:10.054Z,31.75
2023-05-02T02:01:39.839Z,37.25
2023-05-02T02:04:10.045Z,36.25
2023-05-02T02:06:38.135Z,28.25
2023-05-02T02:09:06.208Z,35.25
2023-05-02T02:12:14.335Z,30.75
2023-05-02T02:14:51.234Z,32.50
2023-05-02T02:17:32.423Z,40.75
2023-05-02T02:20:03.631Z,35.25
2023-05-02T02:22:37.045Z,33.50
2023-05-02T02:25:08.141Z,41.50
2023-05-02T02:27:37.759Z,35.00
2023-05-02T02:30:06.057Z,37.25
2023-05-02T02:32:33.680Z,40.25
2023-05-02T02:35:03.316Z,38.25
2023-05-02T02:37:41.235Z,38.00
2023-05-02T02:40:19.261Z,32.25
2023-05-02T02:43:24.024Z,37.75
2023-05-02T02:46:17.357Z,41.50
2023-05-02T02:49:03.399Z,38.00
2023-05-02T02:51:44.468Z,37.00
2023-05-02T02:54:22.908Z,40.00
2023-05-02T02:57:02.968Z,40.25
2023-05-02T02:59:38.920Z,52.25
2023-05-02T03:02:08.913Z,40.75
2023-05-02T03:04:41.173Z,38.75
2023-05-02T03:07:09.693Z,31.50
2023-05-02T03:09:44.231Z,40.50
2023-05-02T03:12:11.881Z,39.50
2023-05-02T03:14:40.824Z,35.25
2023-05-02T03:17:11.253Z,41.25
2023-05-02T03:19:38.952Z,35.25
2023-05-02T03:22:06.401Z,31.50
2023-05-02T03:24:33.838Z,32.25
2023-05-02T03:27:01.376Z,39.50
2023-05-02T03:29:28.953Z,38.00
2023-05-02T03:31:56.448Z,45.50
2023-05-02T03:34:24.016Z,37.00
2023-05-02T03:36:51.449Z,32.00
2023-05-02T03:39:18.882Z,39.75
2023-05-02T03:41:46.623Z,32.75
2023-05-02T03:44:14.145Z,45.50
2023-05-02T03:46:41.543Z,44.25
2023-05-02T03:49:09.199Z,37.00
2023-05-02T03:51:36.820Z,37.25
2023-05-02T03:54:04.463Z,38.50
2023-05-02T03:56:32.337Z,42.25
2023-05-02T03:59:00.034Z,36.50
2023-05-02T04:01:27.477Z,53.75
2023-05-02T04:03:54.973Z,33.50
2023-05-02T04:06:22.437Z,42.75
2023-05-02T04:08:49.874Z,31.00
2023-05-02T04:11:17.329Z,25.75
2023-05-02T04:13:44.768Z,31.25
2023-05-02T04:16:12.198Z,37.25
2023-05-02T04:18:39.726Z,32.50
2023-05-02T04:21:09.417Z,30.25
2023-05-02T04:23:36.857Z,29.75
2023-05-02T04:26:04.311Z,32.25
2023-05-02T04:28:31.718Z,32.00
2023-05-02T04:30:59.330Z,32.50
2023-05-02T04:33:26.822Z,30.75
2023-05-02T04:35:54.170Z,27.75
2023-05-02T04:38:21.705Z,27.75
2023-05-02T04:40:52.365Z,29.00
2023-05-02T04:43:19.775Z,18.25
2023-05-02T04:45:47.305Z,29.50
2023-05-02T04:48:14.798Z,52.00
2023-05-02T04:50:42.201Z,25.00
2023-05-02T04:53:09.718Z,30.00
2023-05-02T04:55:37.613Z,26.50
2023-05-02T04:58:04.980Z,27.75
2023-05-02T05:00:32.605Z,24.25
2023-05-02T05:03:01.752Z,29.25
2023-05-02T05:05:29.888Z,27.25
2023-05-02T05:07:57.438Z,29.00
2023-05-02T05:10:24.917Z,33.50
2023-05-02T05:12:53.534Z,24.50
2023-05-02T05:15:24.050Z,18.00
2023-05-02T05:17:51.780Z,23.75
2023-05-02T05:20:19.940Z,25.25
2023-05-02T05:22:47.634Z,24.00
2023-05-02T05:25:15.567Z,23.75
2023-05-02T05:27:43.137Z,23.50
2023-05-02T05:30:11.011Z,23.00
2023-05-02T05:32:38.834Z,25.75
2023-05-02T05:35:07.711Z,27.00
2023-05-02T05:37:37.503Z,15.75
2023-05-02T05:40:08.876Z,25.00
2023-05-02T05:42:36.898Z,18.00
2023-05-02T05:45:04.618Z,19.67
2023-05-02T05:47:32.461Z,26.00
2023-05-02T05:50:00.828Z,21.00
2023-05-02T05:52:28.636Z,17.00
2023-05-02T05:54:59.951Z,23.33
2023-05-02T05:57:27.464Z,22.67
2023-05-02T05:59:54.889Z,16.67
2023-05-02T06:02:23.213Z,23.67
2023-05-02T06:04:50.931Z,19.67
2023-05-02T06:07:18.404Z,14.25
2023-05-02T06:09:45.982Z,18.25
2023-05-02T06:12:13.455Z,14.25
2023-05-02T06:14:41.081Z,15.75
2023-05-02T06:17:08.716Z,13.75
2023-05-02T06:19:36.498Z,10.00
2023-05-02T06:22:04.262Z,19.50
2023-05-02T06:24:31.851Z,21.50
2023-05-02T06:26:59.705Z,18.50
2023-05-02T06:29:27.153Z,11.75
2023-05-02T06:31:57.630Z,9.75
2023-05-02T06:34:25.190Z,7.75
2023-05-02T06:36:57.006Z,7.50
2023-05-02T06:39:24.726Z,8.00
2023-05-02T06:41:56.521Z,14.50
2023-05-02T06:44:24.036Z,6.00
2023-05-02T06:46:51.494Z,8.25
2023-05-02T06:49:18.983Z,8.25
2023-05-02T06:51:46.445Z,7.75
2023-05-02T06:54:14.983Z,3.50
2023-05-02T06:56:43.054Z,7.00
2023-05-02T06:59:10.710Z,7.50
2023-05-02T07:01:38.261Z,5.00
2023-05-02T07:04:06.280Z,4.00
2023-05-02T07:06:33.950Z,5.75
2023-05-02T07:09:01.528Z,7.00
2023-05-02T07:11:29.215Z,6.75
2023-05-02T07:13:56.671Z,7.50
2023-05-02T07:16:24.481Z,9.25
2023-05-02T07:18:51.948Z,11.00
2023-05-02T07:21:19.418Z,13.25
2023-05-02T07:23:46.913Z,20.50
2023-05-02T07:26:14.332Z,6.75
2023-05-02T07:28:41.759Z,6.25
2023-05-02T07:31:09.139Z,3.75
2023-05-02T07:33:36.572Z,3.50
2023-05-02T07:36:04.232Z,8.75
2023-05-02T07:38:32.002Z,4.25
2023-05-02T07:41:00.418Z,6.25
2023-05-02T07:43:28.221Z,3.00
2023-05-02T07:45:56.317Z,5.75
2023-05-02T07:48:26.108Z,2.50
2023-05-02T07:50:55.117Z,3.00
2023-05-02T07:53:22.470Z,7.00
2023-05-02T07:55:49.886Z,3.00
2023-05-02T07:58:17.693Z,2.25
2023-05-02T08:00:45.084Z,11.50
2023-05-02T08:03:12.697Z,2.25
2023-05-02T08:05:40.461Z,2.00
2023-05-02T08:08:08.068Z,3.00
2023-05-02T08:10:35.512Z,2.40
2023-05-02T08:13:02.952Z,3.40
2023-05-02T08:15:30.868Z,1.80
2023-05-02T08:17:59.998Z,4.00
2023-05-02T08:20:27.489Z,2.60
2023-05-02T08:22:54.981Z,8.60
2023-05-02T08:25:22.429Z,3.00
2023-05-02T08:27:49.893Z,2.60
2023-05-02T08:30:17.269Z,1.00
2023-05-02T08:32:46.924Z,2.20
2023-05-02T08:35:14.493Z,1.80
2023-05-02T08:37:42.005Z,2.00
2023-05-02T08:40:12.670Z,1.40
2023-05-02T08:42:44.098Z,5.00
2023-05-02T08:45:14.904Z,1.40
2023-05-02T08:47:45.872Z,2.00
2023-05-02T08:50:14.398Z,2.00
2023-05-02T08:52:42.907Z,1.40
2023-05-02T08:55:12.142Z,2.00
2023-05-02T08:57:41.266Z,1.00
2023-05-02T09:00:09.003Z,2.40
2023-05-02T09:02:46.105Z,2.20
2023-05-02T09:05:21.021Z,5.00
2023-05-02T09:07:49.577Z,1.40
2023-05-02T09:10:17.156Z,2.20
2023-05-02T09:12:44.887Z,1.00
2023-05-02T09:15:14.345Z,1.80
2023-05-02T09:17:44.122Z,3.40
2023-05-02T09:20:16.124Z,1.60
2023-05-02T09:22:51.892Z,1.20
2023-05-02T09:25:22.638Z,0.80
2023-05-02T09:27:51.231Z,1.60
2023-05-02T09:30:22.503Z,1.80
2023-05-02T09:32:57.023Z,2.60
2023-05-02T09:35:24.565Z,2.80
2023-05-02T09:37:53.901Z,1.60
2023-05-02T09:40:21.634Z,2.20
2023-05-02T09:42:49.366Z,0.60
2023-05-02T09:45:21.979Z,1.20
2023-05-02T09:51:38.807Z,3.40
2023-05-02T09:58:23.211Z,1.00
2023-05-02T10:00:52.152Z,2.40
2023-05-02T10:03:19.917Z,2.80
2023-05-02T10:05:47.661Z,1.00
2023-05-02T10:08:21.656Z,2.20
2023-05-02T10:10:55.325Z,3.60
2023-05-02T10:13:27.150Z,1.60
2023-05-02T10:16:00.409Z,4.40
2023-05-02T10:18:33.758Z,3.20
2023-05-02T10:21:08.207Z,2.00
2023-05-02T10:23:36.214Z,3.00
2023-05-02T10:26:04.282Z,2.00
2023-05-02T10:28:32.406Z,1.00
2023-05-02T10:31:02.877Z,1.00
2023-05-02T10:33:32.003Z,3.60
2023-05-02T10:35:59.802Z,5.60
2023-05-02T10:38:27.861Z,2.60
2023-05-02T10:41:01.409Z,0.80
2023-05-02T10:43:32.622Z,3.00
2023-05-02T10:46:00.335Z,1.20
2023-05-02T10:48:28.051Z,3.00
2023-05-02T10:51:01.376Z,1.20
2023-05-02T10:53:34.062Z,4.00
2023-05-02T10:56:21.960Z,3.80
2023-05-02T10:58:51.797Z,1.40
2023-05-02T11:01:26.640Z,2.00
2023-05-02T11:03:59.081Z,3.00
2023-05-02T11:06:28.348Z,4.60
2023-05-02T11:09:15.129Z,2.00
2023-05-02T11:11:43.630Z,2.40
2023-05-02T11:14:14.051Z,1.00
2023-05-02T11:17:00.084Z,1.20
2023-05-02T11:19:31.050Z,3.40
2023-05-02T11:22:20.805Z,1.00
2023-05-02T11:24:49.288Z,1.00
2023-05-02T11:27:32.243Z,1.80
2023-05-02T11:30:09.922Z,1.40
2023-05-02T11:32:44.514Z,2.00
2023-05-02T11:35:32.952Z,1.00
2023-05-02T11:38:12.425Z,2.00
2023-05-02T11:40:39.912Z,1.80
2023-05-02T11:43:15.584Z,2.20
2023-05-02T11:45:43.887Z,2.00
2023-05-02T11:48:13.606Z,0.80
2023-05-02T11:50:50.386Z,1.20
2023-05-02T11:53:24.219Z,3.20
2023-05-02T11:55:54.535Z,1.80
2023-05-02T11:58:23.644Z,0.80
2023-05-02T12:00:52.594Z,2.60
2023-05-02T12:03:38.642Z,1.20
2023-05-02T12:06:15.399Z,2.40
2023-05-02T12:08:44.734Z,2.00
2023-05-02T12:11:16.748Z,0.20
2023-05-02T12:13:49.072Z,1.40
2023-05-02T12:16:18.467Z,0.00
2023-05-02T12:18:48.425Z,0.20
2023-05-02T12:21:16.424Z,1.00
2023-05-02T12:23:44.527Z,1.00
2023-05-02T12:26:32.776Z,3.20
2023-05-02T12:29:02.152Z,1.00
2023-05-02T12:31:31.592Z,0.60
2023-05-02T12:34:00.592Z,0.80
2023-05-02T12:36:33.671Z,0.00
2023-05-02T12:39:02.244Z,0.00
2023-05-02T12:41:38.015Z,0.00
2023-05-02T12:44:07.323Z,4.00
2023-05-02T12:46:36.548Z,0.80
2023-05-02T12:49:09.528Z,1.00
2023-05-02T12:51:38.310Z,0.40
2023-05-02T12:54:06.858Z,1.00
2023-05-02T12:56:41.496Z,0.60
2023-05-02T12:59:09.638Z,0.40
2023-05-02T13:01:37.090Z,0.40
2023-05-02T13:04:05.744Z,1.00
2023-05-02T13:06:33.463Z,0.00
2023-05-02T13:09:01.059Z,0.00
2023-05-02T13:11:28.435Z,0.00
2023-05-02T13:13:56.630Z,0.00
2023-05-02T13:16:24.281Z,2.80
2023-05-02T13:18:51.844Z,2.00
2023-05-02T13:21:19.314Z,0.40
2023-05-02T13:23:51.979Z,0.00
2023-05-02T13:26:19.353Z,0.00
2023-05-02T13:28:46.816Z,0.20
2023-05-02T13:31:14.194Z,0.60
2023-05-02T13:33:41.641Z,3.80
2023-05-02T13:36:09.327Z,6.40
2023-05-02T13:38:36.982Z,7.00
2023-05-02T13:41:04.596Z,3.20
2023-05-02T13:43:32.414Z,0.60
2023-05-02T13:46:00.436Z,0.60
2023-05-02T13:48:28.036Z,0.00
2023-05-02T13:50:55.585Z,2.00
2023-05-02T13:53:23.170Z,1.20
2023-05-02T13:55:50.746Z,0.00
2023-05-02T13:58:18.454Z,0.00
2023-05-02T14:00:46.157Z,1.00
2023-05-02T14:03:13.936Z,1.20
2023-05-02T14:05:43.932Z,0.00
2023-05-02T14:08:12.064Z,0.80
2023-05-02T14:10:39.615Z,0.00
2023-05-02T14:13:06.972Z,0.20
2023-05-02T14:15:34.686Z,0.60
2023-05-02T14:18:02.299Z,1.00
2023-05-02T14:20:29.893Z,1.80
2023-05-02T14:22:57.406Z,4.00
2023-05-02T14:25:24.735Z,16.40
2023-05-02T14:27:52.118Z,6.80
2023-05-02T14:30:19.484Z,3.60
2023-05-02T14:32:47.165Z,4.40
2023-05-02T14:35:14.901Z,3.20
2023-05-02T14:37:45.093Z,0.20
2023-05-02T14:40:13.030Z,11.40
2023-05-02T14:42:41.421Z,1.00
2023-05-02T14:45:09.869Z,0.40
2023-05-02T14:47:37.452Z,0.60
2023-05-02T14:50:05.700Z,2.60
2023-05-02T14:52:33.657Z,2.60
2023-05-02T14:55:02.348Z,0.40
2023-05-02T14:57:29.933Z,2.60
2023-05-02T14:59:57.359Z,1.00
2023-05-02T15:02:24.835Z,1.80
2023-05-02T15:04:52.587Z,0.60
2023-05-02T15:07:20.083Z,3.00
2023-05-02T15:09:47.661Z,1.20
2023-05-02T15:12:15.143Z,0.20
2023-05-02T15:14:42.517Z,2.00
2023-05-02T15:17:10.153Z,2.00
2023-05-02T15:19:37.596Z,1.20
2023-05-02T15:22:05.043Z,1.20
2023-05-02T15:24:32.624Z,2.60
2023-05-02T15:27:00.244Z,3.00
2023-05-02T15:29:27.653Z,3.20
2023-05-02T15:31:55.169Z,0.80
2023-05-02T15:34:22.672Z,1.00
2023-05-02T15:36:50.121Z,2.00
2023-05-02T15:39:17.669Z,1.20
2023-05-02T15:41:47.977Z,5.00
2023-05-02T15:44:15.453Z,2.00
2023-05-02T15:46:46.895Z,2.60
2023-05-02T15:49:14.633Z,5.40
2023-05-02T15:51:42.801Z,4.40
2023-05-02T15:54:10.268Z,3.00
2023-05-02T15:56:37.986Z,2.40
2023-05-02T15:59:05.389Z,4.80
2023-05-02T16:01:32.853Z,0.25
2023-05-02T16:04:00.430Z,2.50
2023-05-02T16:06:27.923Z,3.00
2023-05-02T16:08:55.362Z,6.75
2023-05-02T16:11:22.735Z,2.25
2023-05-02T16:13:50.125Z,4.75
2023-05-02T16:16:17.617Z,3.50
2023-05-02T16:18:45.063Z,5.25
2023-05-02T16:21:12.494Z,2.25
2023-05-02T16:23:40.084Z,6.00
2023-05-02T16:26:07.453Z,3.50
2023-05-02T16:28:35.156Z,1.50
2023-05-02T16:31:07.234Z,3.00
2023-05-02T16:33:34.728Z,26.25
2023-05-02T16:36:03.504Z,8.00
2023-05-02T16:38:31.015Z,6.00
2023-05-02T16:40:58.651Z,8.25
2023-05-02T16:43:26.245Z,3.50
2023-05-02T16:46:04.472Z,5.00
2023-05-02T16:48:32.631Z,4.50
2023-05-02T16:51:02.531Z,6.75
2023-05-02T16:53:31.817Z,5.00
2023-05-02T16:55:59.858Z,2.75
2023-05-02T16:58:30.265Z,5.75
2023-05-02T17:01:00.396Z,7.75
2023-05-02T17:03:29.484Z,9.25
2023-05-02T17:06:01.809Z,8.75
2023-05-02T17:08:29.962Z,10.50
2023-05-02T17:10:57.598Z,12.00
2023-05-02T17:13:25.177Z,8.00
2023-05-02T17:15:53.776Z,10.75
2023-05-02T17:18:21.992Z,9.50
2023-05-02T17:20:49.967Z,19.50
2023-05-02T17:23:17.439Z,15.50
2023-05-02T17:25:44.947Z,12.75
2023-05-02T17:28:12.518Z,14.00
2023-05-02T17:30:39.950Z,7.00
2023-05-02T17:33:07.468Z,13.25
2023-05-02T17:35:34.849Z,19.50
2023-05-02T17:38:02.361Z,16.50
2023-05-02T17:40:30.079Z,14.00
2023-05-02T17:42:59.010Z,17.50
2023-05-02T17:45:28.313Z,21.00
2023-05-02T17:47:55.811Z,15.50
2023-05-02T17:50:23.413Z,13.75
2023-05-02T17:52:51.016Z,16.00
2023-05-02T17:55:19.166Z,15.50
2023-05-02T17:57:46.986Z,22.50
2023-05-02T18:00:14.856Z,13.25
2023-05-02T18:02:42.740Z,14.25
2023-05-02T18:05:10.221Z,13.00
2023-05-02T18:07:38.914Z,12.00
2023-05-02T18:10:07.509Z,15.50
2023-05-02T18:12:35.310Z,18.75
2023-05-02T18:15:05.282Z,18.50
2023-05-02T18:17:34.515Z,18.00
2023-05-02T18:20:04.474Z,18.33
2023-05-02T18:22:35.726Z,19.75
2023-05-02T18:25:03.521Z,17.75
2023-05-02T18:27:32.374Z,16.33
2023-05-02T18:29:59.907Z,24.00
2023-05-02T18:32:27.301Z,24.67
2023-05-02T18:34:54.734Z,21.00
2023-05-02T18:37:27.731Z,15.33
2023-05-02T18:39:55.158Z,24.00
2023-05-02T18:42:22.494Z,29.67
2023-05-02T18:44:49.900Z,23.67
2023-05-02T18:47:17.449Z,22.67
2023-05-02T18:49:44.864Z,31.25
2023-05-02T18:52:12.230Z,25.33
2023-05-02T18:54:39.882Z,33.00
2023-05-02T18:57:07.719Z,16.33
2023-05-02T18:59:35.154Z,24.67
2023-05-02T19:02:02.789Z,31.00
2023-05-02T19:04:31.884Z,28.25
2023-05-02T19:06:59.262Z,27.75
2023-05-02T19:09:26.670Z,33.75
2023-05-02T19:11:55.158Z,27.00
2023-05-02T19:14:22.557Z,35.75
2023-05-02T19:16:49.957Z,23.50
2023-05-02T19:19:18.287Z,20.67
2023-05-02T19:21:47.037Z,27.25
2023-05-02T19:24:14.526Z,27.50
2023-05-02T19:26:41.990Z,30.00
2023-05-02T19:29:09.565Z,25.00
2023-05-02T19:31:37.631Z,27.75
2023-05-02T19:34:05.177Z,33.50
2023-05-02T19:36:32.697Z,32.00
2023-05-02T19:39:00.119Z,28.75
2023-05-02T19:41:27.702Z,23.75
2023-05-02T19:43:57.012Z,31.75
2023-05-02T19:46:24.680Z,32.00
2023-05-02T19:48:52.082Z,24.75
2023-05-02T19:51:25.319Z,24.00
2023-05-02T19:53:58.953Z,26.50
2023-05-02T19:56:27.501Z,31.25
2023-05-02T19:58:58.714Z,26.00
2023-05-02T20:01:28.976Z,32.75
2023-05-02T20:03:56.603Z,35.00
2023-05-02T20:06:24.609Z,28.00
2023-05-02T20:08:53.087Z,21.50
2023-05-02T20:11:20.563Z,28.25
2023-05-02T20:13:47.988Z,25.50
2023-05-02T20:16:15.512Z,30.50
2023-05-02T20:18:42.944Z,25.75
2023-05-02T20:21:10.836Z,24.25
2023-05-02T20:23:39.507Z,30.25
2023-05-02T20:26:07.145Z,29.00
2023-05-02T20:28:34.877Z,28.50
2023-05-02T20:31:03.031Z,23.50
2023-05-02T20:33:43.994Z,29.00
2023-05-02T20:36:15.005Z,23.50
2023-05-02T20:38:43.079Z,31.25
2023-05-02T20:41:14.788Z,26.25
2023-05-02T20:43:45.112Z,29.25
2023-05-02T20:46:16.243Z,29.00
2023-05-02T20:48:43.833Z,30.50
2023-05-02T20:51:11.546Z,41.50
2023-05-02T20:53:39.583Z,33.25
2023-05-02T20:56:07.232Z,35.00
2023-05-02T20:58:34.718Z,29.75
2023-05-02T21:01:02.206Z,30.00
2023-05-02T21:03:29.878Z,34.25
2023-05-02T21:05:59.693Z,34.25
2023-05-02T21:08:27.144Z,23.75
2023-05-02T21:10:54.620Z,28.25
2023-05-02T21:13:22.422Z,38.25
2023-05-02T21:15:49.904Z,32.25
2023-05-02T21:18:17.617Z,31.75
2023-05-02T21:20:48.371Z,38.00
2023-05-02T21:23:15.796Z,41.50
2023-05-02T21:25:43.241Z,30.00
2023-05-02T21:28:11.692Z,35.00
2023-05-02T21:30:39.240Z,39.75
2023-05-02T21:33:06.669Z,38.00
2023-05-02T21:35:34.228Z,31.50
2023-05-02T21:38:02.463Z,37.25
2023-05-02T21:40:31.828Z,40.00
2023-05-02T21:42:59.376Z,33.75
2023-05-02T21:45:26.998Z,26.75
2023-05-02T21:47:54.417Z,31.00
2023-05-02T21:50:22.118Z,31.00
2023-05-02T21:52:49.599Z,35.00
2023-05-02T21:55:17.025Z,37.75
2023-05-02T21:57:44.433Z,39.75
2023-05-02T22:00:13.151Z,31.75
2023-05-02T22:02:41.116Z,34.75
2023-05-02T22:05:08.821Z,41.50
2023-05-02T22:07:37.574Z,33.00
2023-05-02T22:10:06.748Z,33.50
2023-05-02T22:12:34.325Z,46.25
2023-05-02T22:15:01.806Z,36.50
2023-05-02T22:17:30.017Z,39.00
2023-05-02T22:19:57.368Z,35.50
2023-05-02T22:22:24.743Z,38.00
2023-05-02T22:24:52.092Z,38.50
2023-05-02T22:27:19.811Z,36.75
2023-05-02T22:29:47.265Z,35.75
2023-05-02T22:32:14.773Z,34.00
2023-05-02T22:34:42.491Z,37.50
2023-05-02T22:37:09.900Z,40.25
2023-05-02T22:39:37.635Z,41.50
2023-05-02T22:42:05.211Z,41.50
2023-05-02T22:44:37.932Z,43.00
2023-05-02T22:47:11.229Z,43.75
2023-05-02T22:49:40.635Z,50.00
2023-05-02T22:52:08.169Z,41.25
2023-05-02T22:54:35.864Z,40.50
2023-05-02T22:57:03.558Z,42.75
2023-05-02T22:59:30.986Z,44.00
2023-05-02T23:02:01.173Z,37.25
2023-05-02T23:04:28.628Z,39.50
2023-05-02T23:06:56.258Z,46.25
2023-05-02T23:09:23.711Z,26.25
2023-05-02T23:11:51.563Z,23.75
2023-05-02T23:14:20.773Z,44.50
2023-05-02T23:16:49.991Z,39.25
2023-05-02T23:19:17.351Z,37.25
2023-05-02T23:21:44.788Z,33.25
2023-05-02T23:24:12.461Z,45.50
2023-05-02T23:26:40.940Z,41.00
2023-05-02T23:29:08.472Z,41.75
2023-05-02T23:31:36.333Z,31.50
2023-05-02T23:34:04.289Z,33.00
2023-05-02T23:36:33.902Z,38.75
2023-05-02T23:39:02.534Z,45.00
2023-05-02T23:41:30.834Z,36.50
2023-05-02T23:43:58.225Z,36.50
2023-05-02T23:46:25.925Z,46.50
2023-05-02T23:48:53.670Z,35.25
2023-05-02T23:51:21.041Z,44.50
2023-05-02T23:53:48.725Z,40.00
2023-05-02T23:56:16.108Z,47.75
2023-05-02T23:58:43.441Z,29.25
